createdAt,value
2018-11-05T00:00:38.020Z,71.53
2018-11-05T00:03:08.370Z,78.37
2018-11-05T00:05:38.480Z,76.33
2018-11-05T00:08:08.524Z,76.42
2018-11-05T00:10:38.738Z,75.43
2018-11-05T00:13:08.701Z,76.93
2018-11-05T00:15:38.743Z,81.40
2018-11-05T00:18:08.798Z,77.07
2018-11-05T00:20:38.645Z,71.10
2018-11-05T00:23:08.613Z,82.57
2018-11-05T00:25:38.656Z,80.30
2018-11-05T00:28:08.579Z,73.20
2018-11-05T00:30:38.668Z,77.60
2018-11-05T00:33:08.495Z,78.47
2018-11-05T00:35:38.562Z,83.33
2018-11-05T00:38:08.627Z,84.30
2018-11-05T00:40:38.496Z,75.33
2018-11-05T00:43:08.563Z,77.80
2018-11-05T00:45:38.573Z,77.10
2018-11-05T00:48:08.609Z,76.77
2018-11-05T00:50:38.545Z,86.33
2018-11-05T00:53:08.557Z,80.13
2018-11-05T00:55:38.800Z,79.70
2018-11-05T00:58:08.581Z,81.33
2018-11-05T01:00:38.608Z,79.80
2018-11-05T01:03:08.539Z,83.13
2018-11-05T01:05:38.530Z,75.73
2018-11-05T01:08:08.577Z,80.57
2018-11-05T01:10:38.673Z,69.93
2018-11-05T01:13:08.542Z,81.57
2018-11-05T01:15:38.556Z,85.17
2018-11-05T01:18:08.593Z,76.50
2018-11-05T01:20:38.570Z,72.33
2018-11-05T01:23:08.576Z,76.63
2018-11-05T01:25:38.674Z,81.20
2018-11-05T01:28:08.569Z,80.73
2018-11-05T01:30:38.625Z,76.07
2018-11-05T01:33:08.567Z,77.23
2018-11-05T01:35:38.579Z,75.90
2018-11-05T01:38:08.833Z,81.53
2018-11-05T01:40:38.604Z,71.10
2018-11-05T01:43:08.517Z,75.70
2018-11-05T01:45:38.617Z,76.87
2018-11-05T01:48:08.457Z,78.73
2018-11-05T01:50:38.524Z,69.57
2018-11-05T01:53:08.498Z,77.53
2018-11-05T01:55:38.670Z,75.70
2018-11-05T01:58:09.405Z,75.87
2018-11-05T02:00:39.452Z,70.27
2018-11-05T02:03:09.568Z,69.03
2018-11-05T02:05:39.598Z,73.77
2018-11-05T02:08:09.497Z,74.33
2018-11-05T02:10:39.750Z,77.07
2018-11-05T02:13:09.740Z,72.03
2018-11-05T02:15:39.722Z,81.20
2018-11-05T02:18:09.564Z,77.93
2018-11-05T02:20:39.495Z,84.03
2018-11-05T02:23:09.552Z,68.77
2018-11-05T02:25:39.655Z,76.17
2018-11-05T02:28:09.764Z,78.07
2018-11-05T02:30:39.608Z,77.77
2018-11-05T02:33:09.414Z,76.03
2018-11-05T02:35:39.526Z,69.03
2018-11-05T02:38:09.535Z,80.40
2018-11-05T02:40:39.599Z,81.60
2018-11-05T02:43:09.578Z,80.43
2018-11-05T02:45:39.513Z,83.90
2018-11-05T02:48:09.562Z,81.30
2018-11-05T02:50:39.427Z,79.27
2018-11-05T02:53:09.653Z,79.07
2018-11-05T02:55:39.602Z,80.27
2018-11-05T02:58:09.429Z,86.57
2018-11-05T03:00:39.620Z,89.90
2018-11-05T03:03:09.454Z,79.10
2018-11-05T03:05:39.552Z,80.20
2018-11-05T03:08:09.490Z,81.90
2018-11-05T03:10:39.519Z,85.33
2018-11-05T03:13:09.665Z,77.77
2018-11-05T03:15:39.834Z,76.27
2018-11-05T03:18:09.813Z,83.30
2018-11-05T03:20:39.569Z,76.70
2018-11-05T03:23:09.389Z,79.10
2018-11-05T03:25:39.981Z,77.47
2018-11-05T03:28:09.713Z,74.53
2018-11-05T03:30:39.625Z,81.77
2018-11-05T03:33:09.549Z,75.60
2018-11-05T03:35:39.771Z,81.87
2018-11-05T03:38:09.706Z,83.67
2018-11-05T03:40:39.622Z,76.83
2018-11-05T03:43:09.877Z,81.92
2018-11-05T03:45:39.707Z,81.53
2018-11-05T03:48:09.909Z,80.75
2018-11-05T03:50:39.936Z,78.63
2018-11-05T03:53:10.090Z,85.14
2018-11-05T03:55:40.094Z,86.63
2018-11-05T03:58:09.988Z,80.20
2018-11-05T04:00:40.521Z,77.54
2018-11-05T04:03:11.161Z,81.75
2018-11-05T04:05:42.109Z,84.90
2018-11-05T04:08:12.942Z,77.58
2018-11-05T04:10:44.468Z,77.82
2018-11-05T04:13:14.971Z,76.65
2018-11-05T04:15:46.555Z,73.22
2018-11-05T04:18:17.403Z,75.12
2018-11-05T04:20:48.425Z,75.30
2018-11-05T04:23:19.014Z,79.32
2018-11-05T04:25:50.359Z,81.56
2018-11-05T04:28:21.245Z,74.67
2018-11-05T04:30:52.082Z,74.72
2018-11-05T04:33:23.310Z,80.86
2018-11-05T04:35:54.005Z,79.87
2018-11-05T04:38:25.184Z,72.44
2018-11-05T04:40:56.403Z,73.06
2018-11-05T04:43:26.909Z,71.28
2018-11-05T04:45:59.197Z,73.84
2018-11-05T04:48:29.624Z,71.57
2018-11-05T04:51:00.913Z,76.53
2018-11-05T04:53:31.330Z,74.16
2018-11-05T04:56:02.186Z,74.12
2018-11-05T04:58:32.984Z,77.95
2018-11-05T05:01:04.771Z,81.20
2018-11-05T05:03:35.251Z,86.55
2018-11-05T05:06:06.442Z,81.22
2018-11-05T05:08:37.022Z,76.72
2018-11-05T05:11:08.569Z,79.02
2018-11-05T05:13:39.154Z,79.72
2018-11-05T05:16:11.361Z,77.66
2018-11-05T05:18:42.703Z,85.60
2018-11-05T05:21:12.650Z,85.83
2018-11-05T05:23:43.129Z,82.40
2018-11-05T05:26:14.473Z,80.72
2018-11-05T05:28:44.991Z,75.92
2018-11-05T05:31:16.444Z,84.02
2018-11-05T05:33:46.949Z,81.60
2018-11-05T05:36:18.422Z,84.70
2018-11-05T05:38:49.037Z,76.35
2018-11-05T05:41:20.665Z,86.16
2018-11-05T05:43:51.284Z,80.70
2018-11-05T05:46:22.202Z,76.82
2018-11-05T05:48:53.007Z,77.50
2018-11-05T05:51:24.433Z,77.80
2018-11-05T05:53:55.066Z,80.87
2018-11-05T05:56:26.731Z,83.82
2018-11-05T05:58:57.256Z,81.92
2018-11-05T06:01:28.228Z,84.17
2018-11-05T06:03:59.070Z,77.55
2018-11-05T06:06:30.830Z,82.26
2018-11-05T06:09:01.279Z,79.37
2018-11-05T06:11:32.387Z,84.80
2018-11-05T06:14:03.085Z,92.85
2018-11-05T06:16:34.799Z,75.20
2018-11-05T06:19:05.796Z,75.15
2018-11-05T06:21:36.695Z,83.17
2018-11-05T06:24:07.354Z,75.10
2018-11-05T06:26:38.342Z,78.95
2018-11-05T06:29:09.110Z,74.65
2018-11-05T06:31:40.187Z,75.30
2018-11-05T06:34:11.120Z,80.22
2018-11-05T06:36:42.523Z,69.90
2018-11-05T06:39:14.400Z,73.92
2018-11-05T06:41:44.438Z,78.10
2018-11-05T06:44:15.245Z,77.75
2018-11-05T06:46:46.371Z,70.72
2018-11-05T06:49:17.017Z,70.70
2018-11-05T06:51:48.543Z,87.00
2018-11-05T06:54:19.378Z,71.37
2018-11-05T06:56:50.221Z,73.30
2018-11-05T06:59:20.990Z,89.00
2018-11-05T07:01:52.470Z,80.84
2018-11-05T07:04:23.051Z,82.72
2018-11-05T07:06:54.461Z,79.76
2018-11-05T07:09:25.024Z,74.65
2018-11-05T07:11:56.597Z,74.44
2018-11-05T07:14:27.246Z,71.12
2018-11-05T07:16:58.314Z,74.67
2018-11-05T07:19:29.094Z,76.82
2018-11-05T07:22:00.289Z,75.60
2018-11-05T07:24:31.031Z,70.22
2018-11-05T07:27:02.437Z,69.44
2018-11-05T07:29:32.981Z,67.62
2018-11-05T07:32:04.629Z,67.86
2018-11-05T07:34:35.356Z,66.55
2018-11-05T07:37:06.748Z,65.05
2018-11-05T07:39:37.230Z,54.53
2018-11-05T07:42:08.097Z,57.48
2018-11-05T07:44:39.371Z,58.14
2018-11-05T07:47:10.304Z,60.65
2018-11-05T07:49:41.097Z,55.80
2018-11-05T07:52:12.469Z,50.98
2018-11-05T07:54:43.038Z,53.02
2018-11-05T07:57:15.537Z,56.76
2018-11-05T07:59:45.330Z,49.90
2018-11-05T08:02:16.246Z,53.30
2018-11-05T08:04:46.991Z,50.63
2018-11-05T08:07:18.433Z,51.02
2018-11-05T08:09:49.004Z,45.70
2018-11-05T08:12:20.443Z,51.62
2018-11-05T08:14:51.165Z,51.02
2018-11-05T08:17:22.128Z,48.65
2018-11-05T08:19:53.483Z,42.94
2018-11-05T08:22:24.139Z,48.90
2018-11-05T08:24:55.106Z,47.35
2018-11-05T08:27:26.039Z,47.48
2018-11-05T08:29:57.371Z,46.28
2018-11-05T08:32:28.293Z,44.85
2018-11-05T08:34:58.995Z,46.20
2018-11-05T08:37:30.516Z,47.86
2018-11-05T08:40:01.287Z,80.62
2018-11-05T08:42:32.241Z,42.33
2018-11-05T08:45:03.090Z,42.10
2018-11-05T08:47:34.538Z,41.44
2018-11-05T08:50:05.284Z,38.73
2018-11-05T08:52:36.183Z,41.35
2018-11-05T08:55:08.589Z,37.58
2018-11-05T08:57:38.629Z,36.07
2018-11-05T09:00:20.435Z,38.20
2018-11-05T09:02:50.987Z,31.52
2018-11-05T09:05:20.911Z,33.67
2018-11-05T09:07:51.783Z,37.73
2018-11-05T09:10:21.868Z,31.07
2018-11-05T09:12:52.142Z,31.67
2018-11-05T09:15:23.062Z,30.20
2018-11-05T09:17:53.260Z,30.70
2018-11-05T09:20:23.193Z,29.75
2018-11-05T09:22:53.849Z,25.67
2018-11-05T09:25:23.909Z,28.17
2018-11-05T09:27:53.842Z,26.87
2018-11-05T09:30:24.946Z,29.15
2018-11-05T09:32:54.767Z,26.90
2018-11-05T09:35:25.165Z,27.07
2018-11-05T09:37:55.086Z,23.23
2018-11-05T09:40:25.878Z,22.10
2018-11-05T09:42:56.585Z,22.74
2018-11-05T09:45:28.690Z,21.02
2018-11-05T09:47:58.623Z,27.90
2018-11-05T09:50:29.285Z,21.17
2018-11-05T09:53:00.252Z,23.77
2018-11-05T09:55:31.034Z,20.02
2018-11-05T09:58:02.198Z,24.37
2018-11-05T10:00:33.024Z,23.20
2018-11-05T10:03:09.622Z,21.78
2018-11-05T10:05:39.956Z,21.27
2018-11-05T10:08:09.931Z,21.17
2018-11-05T10:10:40.793Z,21.85
2018-11-05T10:13:10.591Z,23.80
2018-11-05T10:15:41.110Z,21.70
2018-11-05T10:18:10.968Z,20.60
2018-11-05T10:20:41.713Z,25.10
2018-11-05T10:23:12.301Z,24.32
2018-11-05T10:25:43.157Z,23.45
2018-11-05T10:28:14.341Z,22.36
2018-11-05T10:30:45.282Z,19.10
2018-11-05T10:33:16.079Z,19.90
2018-11-05T10:35:52.415Z,20.84
2018-11-05T10:38:22.642Z,23.90
2018-11-05T10:40:52.662Z,24.23
2018-11-05T10:43:22.621Z,20.50
2018-11-05T10:45:52.924Z,24.90
2018-11-05T10:48:22.896Z,24.07
2018-11-05T10:50:53.399Z,21.70
2018-11-05T10:53:24.620Z,23.95
2018-11-05T10:55:55.157Z,31.75
2018-11-05T10:58:25.333Z,19.50
2018-11-05T11:01:01.264Z,23.02
2018-11-05T11:03:34.546Z,22.98
2018-11-05T11:06:05.976Z,25.50
2018-11-05T11:08:36.058Z,22.40
2018-11-05T11:11:06.253Z,25.40
2018-11-05T11:13:36.155Z,22.50
2018-11-05T11:16:06.098Z,24.23
2018-11-05T11:18:36.132Z,24.55
2018-11-05T11:21:07.026Z,21.43
2018-11-05T11:23:36.782Z,21.80
2018-11-05T11:26:06.869Z,25.77
2018-11-05T11:28:37.425Z,27.64
2018-11-05T11:31:08.433Z,23.77
2018-11-05T11:33:39.074Z,26.10
2018-11-05T11:36:10.315Z,26.86
2018-11-05T11:38:41.278Z,23.73
2018-11-05T11:41:12.025Z,28.65
2018-11-05T11:43:44.523Z,26.62
2018-11-05T11:46:14.486Z,20.13
2018-11-05T11:48:45.227Z,24.87
2018-11-05T11:51:16.023Z,22.52
2018-11-05T11:53:47.364Z,21.92
2018-11-05T11:56:18.272Z,20.15
2018-11-05T11:58:49.082Z,25.65
2018-11-05T12:01:20.114Z,34.85
2018-11-05T12:03:51.456Z,22.16
2018-11-05T12:06:22.021Z,25.80
2018-11-05T12:08:53.397Z,22.36
2018-11-05T12:11:24.046Z,25.25
2018-11-05T12:13:55.685Z,20.66
2018-11-05T12:16:26.550Z,15.60
2018-11-05T12:18:57.170Z,19.37
2018-11-05T12:21:28.094Z,16.60
2018-11-05T12:23:59.108Z,24.80
2018-11-05T12:26:30.098Z,18.57
2018-11-05T12:29:01.144Z,18.40
2018-11-05T12:31:32.223Z,15.40
2018-11-05T12:34:03.168Z,43.95
2018-11-05T12:36:34.145Z,19.45
2018-11-05T12:39:06.354Z,17.85
2018-11-05T12:41:36.478Z,45.73
2018-11-05T12:44:09.292Z,20.77
2018-11-05T12:46:43.690Z,24.18
2018-11-05T12:49:13.603Z,17.07
2018-11-05T12:51:43.442Z,15.53
2018-11-05T12:54:13.314Z,17.83
2018-11-05T12:56:43.227Z,17.32
2018-11-05T12:59:13.013Z,19.67
2018-11-05T13:01:44.670Z,18.22
2018-11-05T13:04:15.215Z,17.32
2018-11-05T13:06:46.307Z,18.23
2018-11-05T13:09:17.007Z,32.63
2018-11-05T13:11:48.439Z,15.94
2018-11-05T13:14:19.089Z,17.12
2018-11-05T13:16:50.646Z,15.60
2018-11-05T13:19:21.133Z,15.78
2018-11-05T13:21:52.290Z,14.07
2018-11-05T13:24:23.010Z,23.50
2018-11-05T13:26:54.422Z,18.32
2018-11-05T13:29:24.948Z,18.57
2018-11-05T13:31:56.496Z,16.16
2018-11-05T13:34:27.103Z,23.65
2018-11-05T13:36:58.986Z,75.68
2018-11-05T13:39:29.003Z,31.57
2018-11-05T13:42:01.137Z,22.20
2018-11-05T13:44:32.546Z,17.12
2018-11-05T13:47:03.379Z,22.03
2018-11-05T13:49:33.692Z,19.54
2018-11-05T13:52:04.382Z,16.62
2018-11-05T13:54:35.305Z,20.88
2018-11-05T13:57:06.729Z,17.02
2018-11-05T13:59:37.253Z,17.37
2018-11-05T14:02:08.232Z,19.23
2018-11-05T14:04:39.065Z,18.55
2018-11-05T14:07:10.338Z,21.50
2018-11-05T14:09:41.445Z,21.87
2018-11-05T14:12:12.156Z,24.60
2018-11-05T14:14:43.393Z,21.42
2018-11-05T14:17:14.126Z,25.15
2018-11-05T14:19:45.401Z,17.90
2018-11-05T14:22:16.128Z,18.45
2018-11-05T14:24:47.104Z,18.20
2018-11-05T14:27:18.067Z,13.85
2018-11-05T14:29:49.667Z,14.28
2018-11-05T14:32:20.305Z,16.52
2018-11-05T14:34:51.048Z,18.70
2018-11-05T14:37:22.571Z,14.12
2018-11-05T14:39:53.360Z,16.30
2018-11-05T14:42:24.365Z,17.35
2018-11-05T14:44:55.032Z,15.00
2018-11-05T14:47:26.525Z,14.54
2018-11-05T14:49:57.140Z,20.20
2018-11-05T14:52:28.182Z,25.82
2018-11-05T14:54:58.132Z,30.63
2018-11-05T14:57:29.654Z,22.13
2018-11-05T15:00:00.365Z,22.93
2018-11-05T15:02:36.061Z,21.05
2018-11-05T15:05:06.549Z,21.97
2018-11-05T15:07:37.087Z,26.12
2018-11-05T15:10:09.073Z,40.25
2018-11-05T15:12:39.042Z,22.17
2018-11-05T15:15:10.395Z,19.70
2018-11-05T15:17:41.599Z,17.65
2018-11-05T15:20:13.931Z,20.50
2018-11-05T15:22:44.178Z,23.18
2018-11-05T15:25:14.924Z,26.00
2018-11-05T15:27:45.089Z,21.93
2018-11-05T15:30:17.893Z,21.95
2018-11-05T15:32:47.817Z,21.73
2018-11-05T15:35:18.018Z,20.40
2018-11-05T15:37:47.962Z,22.55
2018-11-05T15:40:19.280Z,22.63
2018-11-05T15:42:49.479Z,22.13
2018-11-05T15:45:21.181Z,19.50
2018-11-05T15:47:51.284Z,17.10
2018-11-05T15:50:22.158Z,16.35
2018-11-05T15:52:52.254Z,15.10
2018-11-05T15:55:22.461Z,18.43
2018-11-05T15:57:53.048Z,33.88
2018-11-05T16:00:25.360Z,28.74
2018-11-05T16:02:56.738Z,24.07
2018-11-05T16:05:26.787Z,41.47
2018-11-05T16:07:57.244Z,48.33
2018-11-05T16:10:28.140Z,46.73
2018-11-05T16:12:58.966Z,25.57
2018-11-05T16:15:30.356Z,30.42
2018-11-05T16:18:01.624Z,26.45
2018-11-05T16:20:32.177Z,19.42
2018-11-05T16:23:03.082Z,22.58
2018-11-05T16:25:34.413Z,26.74
2018-11-05T16:28:05.076Z,25.20
2018-11-05T16:30:36.710Z,27.22
2018-11-05T16:33:07.630Z,26.27
2018-11-05T16:35:38.415Z,18.48
2018-11-05T16:38:09.038Z,21.33
2018-11-05T16:40:40.518Z,20.88
2018-11-05T16:43:11.328Z,20.65
2018-11-05T16:45:42.294Z,19.25
2018-11-05T16:48:12.956Z,18.92
2018-11-05T16:50:44.457Z,18.06
2018-11-05T16:53:14.965Z,19.45
2018-11-05T16:55:46.409Z,18.76
2018-11-05T16:58:16.981Z,19.35
2018-11-05T17:00:48.482Z,18.68
2018-11-05T17:03:19.093Z,20.10
2018-11-05T17:05:50.189Z,18.92
2018-11-05T17:08:21.226Z,18.30
2018-11-05T17:10:52.120Z,16.80
2018-11-05T17:13:23.396Z,18.12
2018-11-05T17:15:54.207Z,21.45
2018-11-05T17:18:24.982Z,32.35
2018-11-05T17:20:55.560Z,37.37
2018-11-05T17:23:26.256Z,25.02
2018-11-05T17:25:57.145Z,29.02
2018-11-05T17:28:28.274Z,27.04
2018-11-05T17:30:59.050Z,24.40
2018-11-05T17:33:30.331Z,24.74
2018-11-05T17:36:01.077Z,24.82
2018-11-05T17:38:32.256Z,26.32
2018-11-05T17:41:03.081Z,23.70
2018-11-05T17:43:34.268Z,24.10
2018-11-05T17:46:05.123Z,20.60
2018-11-05T17:48:35.954Z,20.55
2018-11-05T17:51:08.321Z,17.78
2018-11-05T17:53:38.040Z,21.13
2018-11-05T17:56:09.417Z,22.64
2018-11-05T17:58:39.905Z,20.37
2018-11-05T18:01:11.425Z,22.66
2018-11-05T18:03:42.031Z,19.42
2018-11-05T18:06:13.092Z,20.65
2018-11-05T18:08:44.351Z,19.98
2018-11-05T18:11:15.225Z,20.20
2018-11-05T18:13:46.054Z,18.82
2018-11-05T18:16:17.501Z,21.32
2018-11-05T18:18:48.212Z,25.70
2018-11-05T18:21:19.367Z,18.45
2018-11-05T18:23:49.977Z,18.87
2018-11-05T18:26:21.757Z,23.64
2018-11-05T18:28:52.185Z,31.93
2018-11-05T18:31:23.126Z,27.45
2018-11-05T18:33:53.973Z,31.50
2018-11-05T18:36:25.397Z,25.08
2018-11-05T18:38:56.275Z,25.23
2018-11-05T18:41:27.105Z,24.07
2018-11-05T18:43:58.338Z,22.04
2018-11-05T18:46:29.416Z,22.00
2018-11-05T18:49:00.033Z,24.77
2018-11-05T18:51:39.430Z,25.50
2018-11-05T18:54:10.250Z,22.20
2018-11-05T18:56:40.818Z,23.30
2018-11-05T18:59:10.705Z,19.97
2018-11-05T19:01:40.778Z,23.63
2018-11-05T19:04:10.784Z,20.13
2018-11-05T19:06:40.910Z,21.27
2018-11-05T19:09:10.272Z,22.50
2018-11-05T19:11:40.007Z,19.67
2018-11-05T19:14:10.227Z,22.37
2018-11-05T19:16:41.349Z,23.60
2018-11-05T19:19:12.158Z,22.52
2018-11-05T19:21:43.061Z,20.62
2018-11-05T19:24:14.441Z,21.16
2018-11-05T19:26:45.063Z,20.62
2018-11-05T19:29:16.300Z,24.84
2018-11-05T19:31:46.993Z,34.98
2018-11-05T19:34:18.300Z,24.46
2018-11-05T19:36:49.393Z,17.77
2018-11-05T19:39:20.044Z,20.52
2018-11-05T19:41:51.501Z,21.78
2018-11-05T19:44:22.110Z,18.60
2018-11-05T19:46:52.013Z,19.10
2018-11-05T19:49:23.379Z,19.10
2018-11-05T19:51:53.948Z,17.85
2018-11-05T19:54:25.549Z,21.54
2018-11-05T19:56:56.041Z,21.97
2018-11-05T19:59:27.354Z,20.28
2018-11-05T20:01:57.929Z,19.32
2018-11-05T20:04:29.416Z,25.00
2018-11-05T20:06:59.966Z,24.20
2018-11-05T20:09:31.407Z,20.46
2018-11-05T20:12:02.120Z,21.73
2018-11-05T20:14:33.039Z,19.57
2018-11-05T20:17:04.349Z,18.92
2018-11-05T20:19:35.107Z,19.70
2018-11-05T20:22:05.945Z,21.70
2018-11-05T20:24:37.579Z,25.48
2018-11-05T20:27:08.142Z,22.27
2018-11-05T20:29:39.353Z,18.94
2018-11-05T20:32:10.416Z,19.95
2018-11-05T20:34:41.402Z,20.17
2018-11-05T20:37:12.178Z,21.48
2018-11-05T20:39:43.612Z,19.02
2018-11-05T20:42:14.482Z,18.02
2018-11-05T20:44:45.156Z,21.10
2018-11-05T20:47:16.357Z,20.72
2018-11-05T20:49:47.400Z,21.48
2018-11-05T20:52:18.709Z,22.34
2018-11-05T20:54:49.241Z,20.40
2018-11-05T20:57:20.055Z,21.48
2018-11-05T20:59:51.406Z,20.98
2018-11-05T21:02:22.109Z,23.52
2018-11-05T21:04:53.197Z,30.70
2018-11-05T21:07:24.111Z,38.17
2018-11-05T21:09:55.113Z,30.12
2018-11-05T21:12:26.405Z,31.94
2018-11-05T21:14:57.287Z,44.70
2018-11-05T21:17:28.194Z,32.83
2018-11-05T21:20:00.398Z,22.13
2018-11-05T21:22:30.400Z,21.27
2018-11-05T21:25:01.098Z,24.27
2018-11-05T21:27:32.496Z,21.94
2018-11-05T21:30:03.169Z,20.82
2018-11-05T21:32:37.686Z,21.80
2018-11-05T21:35:09.323Z,19.43
2018-11-05T21:37:40.026Z,25.07
2018-11-05T21:40:11.475Z,19.70
2018-11-05T21:42:42.152Z,17.07
2018-11-05T21:45:13.333Z,21.07
2018-11-05T21:47:44.668Z,19.67
2018-11-05T21:50:16.484Z,33.90
2018-11-05T21:52:47.449Z,101.55
2018-11-05T21:55:17.397Z,97.45
2018-11-05T21:57:49.148Z,73.07
2018-11-05T22:00:21.322Z,52.57
2018-11-05T22:02:57.071Z,46.13
2018-11-05T22:05:27.156Z,51.80
2018-11-05T22:07:57.468Z,46.37
2018-11-05T22:10:27.841Z,50.90
2018-11-05T22:12:58.303Z,51.95
2018-11-05T22:15:35.638Z,44.18
2018-11-05T22:18:06.246Z,42.85
2018-11-05T22:20:36.222Z,40.77
2018-11-05T22:23:06.434Z,33.17
2018-11-05T22:25:36.978Z,32.28
2018-11-05T22:28:07.373Z,30.63
2018-11-05T22:30:37.297Z,30.68
2018-11-05T22:33:09.953Z,33.63
2018-11-05T22:35:40.120Z,26.85
2018-11-05T22:38:10.122Z,23.10
2018-11-05T22:40:40.081Z,24.23
2018-11-05T22:43:09.944Z,20.27
2018-11-05T22:45:39.776Z,19.87
2018-11-05T22:48:09.599Z,18.33
2018-11-05T22:50:39.448Z,19.53
2018-11-05T22:53:09.269Z,19.05
2018-11-05T22:55:39.552Z,19.45
2018-11-05T22:58:09.413Z,27.67
2018-11-05T23:00:44.776Z,21.50
2018-11-05T23:03:19.811Z,23.57
2018-11-05T23:05:50.117Z,24.82
2018-11-05T23:08:19.857Z,24.23
2018-11-05T23:10:49.750Z,32.47
2018-11-05T23:13:19.848Z,25.05
2018-11-05T23:15:50.085Z,24.25
2018-11-05T23:18:19.808Z,26.37
2018-11-05T23:20:49.794Z,26.03
2018-11-05T23:23:19.550Z,29.72
2018-11-05T23:25:49.665Z,27.20
2018-11-05T23:28:19.439Z,30.07
2018-11-05T23:30:49.909Z,24.82
2018-11-05T23:33:21.524Z,28.30
2018-11-05T23:42:49.143Z,25.80
2018-11-05T23:45:18.937Z,25.60
2018-11-05T23:47:49.556Z,25.07
2018-11-05T23:50:19.584Z,25.47
2018-11-05T23:52:49.480Z,28.00
2018-11-05T23:55:19.531Z,28.23
2018-11-05T23:57:49.616Z,25.13
